Time;durP1;ratioP1;P1;durP2;ratioP2;P2;SDS_P1;SDS_P2;PMS_P1;PMS_P2;Temp;Humidity;BMP_temperature;BMP_pressure;BME280_temperature;BME280_humidity;BME280_pressure;Samples;Min_cycle;Max_cycle;Signal;HPM_P1;HPM_P2
2023/04/26 00:01:57;;;;;;;4.17;2.30;;;;;;;;;;5011225;28;20828;-61
2023/04/26 00:04:23;;;;;;;5.60;2.40;;;;;;;;;;5011048;28;20443;-61
2023/04/26 00:06:49;;;;;;;3.93;2.07;;;;;;;;;;5011278;28;20432;-62
2023/04/26 00:09:17;;;;;;;6.30;2.53;;;;;;;;;;5011001;28;20437;-61
2023/04/26 00:11:45;;;;;;;4.93;2.13;;;;;;;;;;5011132;28;20220;-61
2023/04/26 00:14:11;;;;;;;7.57;2.47;;;;;;;;;;5010765;28;21056;-61
2023/04/26 00:16:37;;;;;;;3.57;2.50;;;;;;;;;;5012742;28;21079;-61
2023/04/26 00:19:03;;;;;;;5.63;2.57;;;;;;;;;;5014718;28;20938;-61
2023/04/26 00:21:30;;;;;;;6.43;2.90;;;;;;;;;;5014489;28;20471;-61
2023/04/26 00:23:56;;;;;;;5.73;2.67;;;;;;;;;;5014455;28;20494;-61
2023/04/26 00:26:22;;;;;;;6.70;2.80;;;;;;;;;;5014351;28;20433;-61
2023/04/26 00:28:49;;;;;;;4.77;2.63;;;;;;;;;;5014472;28;20437;-61
2023/04/26 00:31:16;;;;;;;5.57;2.50;;;;;;;;;;5014453;28;20452;-61
2023/04/26 00:33:43;;;;;;;5.00;2.50;;;;;;;;;;5014276;28;20942;-61
2023/04/26 00:36:09;;;;;;;8.57;2.57;;;;;;;;;;5014096;28;20515;-61
2023/04/26 00:38:35;;;;;;;5.00;2.70;;;;;;;;;;5014456;28;20436;-61
2023/04/26 00:41:01;;;;;;;5.17;2.20;;;;;;;;;;5014390;28;20444;-61
2023/04/26 00:43:27;;;;;;;6.60;2.90;;;;;;;;;;5013944;28;20483;-61
2023/04/26 00:45:54;;;;;;;5.83;2.50;;;;;;;;;;5014172;28;20244;-61
2023/04/26 00:48:21;;;;;;;4.87;2.53;;;;;;;;;;5014081;28;20520;-61
2023/04/26 00:50:47;;;;;;;5.87;2.50;;;;;;;;;;5014250;28;20447;-61
2023/04/26 00:53:14;;;;;;;8.70;2.77;;;;;;;;;;5013935;28;20448;-61
2023/04/26 00:55:40;;;;;;;3.90;2.70;;;;;;;;;;5013884;28;20670;-61
2023/04/26 00:58:06;;;;;;;5.53;2.60;;;;;;;;;;5013855;28;20953;-61
2023/04/26 01:00:32;;;;;;;4.67;2.53;;;;;;;;;;5013884;28;20951;-61
2023/04/26 01:03:00;;;;;;;7.33;2.80;;;;;;;;;;5013788;28;21009;-61
2023/04/26 01:05:26;;;;;;;6.23;2.67;;;;;;;;;;5013693;28;20975;-61
2023/04/26 01:07:52;;;;;;;5.33;2.93;;;;;;;;;;5013637;28;20981;-61
2023/04/26 01:10:18;;;;;;;6.20;2.47;;;;;;;;;;5013699;28;20449;-61
2023/04/26 01:12:44;;;;;;;8.77;3.20;;;;;;;;;;5013573;28;20464;-61
2023/04/26 01:15:11;;;;;;;5.70;2.50;;;;;;;;;;5013275;28;20507;-61
2023/04/26 01:17:37;;;;;;;4.73;2.67;;;;;;;;;;5013376;28;20279;-61
2023/04/26 01:20:05;;;;;;;6.57;2.70;;;;;;;;;;5013423;28;20432;-61
2023/04/26 01:22:33;;;;;;;5.83;2.60;;;;;;;;;;5013457;28;20832;-61
2023/04/26 01:25:01;;;;;;;6.23;2.80;;;;;;;;;;5013473;28;20437;-61
2023/04/26 01:27:27;;;;;;;4.17;2.40;;;;;;;;;;5012360;28;20433;-61
2023/04/26 01:29:53;;;;;;;7.43;3.03;;;;;;;;;;5013334;28;20451;-61
2023/04/26 01:32:19;;;;;;;6.57;2.70;;;;;;;;;;5013320;28;20226;-61
2023/04/26 01:34:45;;;;;;;3.83;2.70;;;;;;;;;;5013376;28;20433;-61
2023/04/26 01:37:11;;;;;;;3.37;2.30;;;;;;;;;;5012874;28;21062;-61
2023/04/26 01:39:38;;;;;;;10.23;2.93;;;;;;;;;;5013139;28;20498;-61
2023/04/26 01:42:05;;;;;;;6.27;2.50;;;;;;;;;;5013192;28;20441;-61
2023/04/26 01:44:31;;;;;;;5.67;2.97;;;;;;;;;;5012894;28;20503;-61
2023/04/26 01:46:57;;;;;;;7.47;2.97;;;;;;;;;;5013030;28;21139;-63
2023/04/26 01:49:23;;;;;;;5.37;2.87;;;;;;;;;;5012830;28;20194;-60
2023/04/26 01:51:49;;;;;;;6.13;2.77;;;;;;;;;;5013049;28;20603;-60
2023/04/26 01:54:15;;;;;;;4.77;2.57;;;;;;;;;;5012844;28;20252;-60
2023/04/26 01:56:42;;;;;;;4.00;2.97;;;;;;;;;;5012783;28;20503;-61
2023/04/26 01:59:08;;;;;;;5.90;2.60;;;;;;;;;;5012683;28;20448;-60
2023/04/26 02:01:34;;;;;;;7.27;2.60;;;;;;;;;;5012762;28;20523;-62
2023/04/26 02:04:00;;;;;;;6.73;2.83;;;;;;;;;;5012915;28;20513;-61
2023/04/26 02:06:26;;;;;;;7.53;2.90;;;;;;;;;;5012478;28;20596;-60
2023/04/26 02:08:53;;;;;;;5.40;2.57;;;;;;;;;;5012559;28;20236;-61
2023/04/26 02:11:20;;;;;;;7.83;3.20;;;;;;;;;;5012633;28;20491;-61
2023/04/26 02:13:47;;;;;;;8.03;3.30;;;;;;;;;;5012419;28;20543;-60
2023/04/26 02:16:15;;;;;;;4.67;3.00;;;;;;;;;;5012499;28;20974;-60
2023/04/26 02:18:41;;;;;;;5.10;2.90;;;;;;;;;;5012311;28;20436;-62
2023/04/26 02:21:08;;;;;;;8.53;3.13;;;;;;;;;;5012437;28;20820;-61
2023/04/26 02:23:34;;;;;;;9.17;3.50;;;;;;;;;;5012519;28;20259;-61
2023/04/26 02:26:00;;;;;;;7.00;3.10;;;;;;;;;;5012449;28;20848;-60
2023/04/26 02:28:26;;;;;;;5.77;2.83;;;;;;;;;;5012203;28;20436;-63
2023/04/26 02:30:55;;;;;;;7.43;3.17;;;;;;;;;;5012343;28;20232;-60
2023/04/26 02:33:21;;;;;;;6.57;2.73;;;;;;;;;;5012179;28;20468;-63
2023/04/26 02:35:47;;;;;;;5.57;2.97;;;;;;;;;;5012257;28;20480;-62
2023/04/26 02:38:13;;;;;;;5.83;3.20;;;;;;;;;;5012217;28;20487;-60
2023/04/26 02:40:39;;;;;;;5.70;2.87;;;;;;;;;;5011979;28;20441;-61
2023/04/26 02:43:06;;;;;;;7.47;3.33;;;;;;;;;;5012067;28;20452;-60
2023/04/26 02:45:32;;;;;;;9.70;3.77;;;;;;;;;;5012056;28;20790;-61
2023/04/26 02:47:59;;;;;;;3.63;2.80;;;;;;;;;;5012132;28;20527;-61
2023/04/26 02:50:25;;;;;;;6.17;2.77;;;;;;;;;;5011943;28;20198;-61
2023/04/26 02:52:51;;;;;;;8.37;3.23;;;;;;;;;;5012034;28;20429;-60
2023/04/26 02:55:17;;;;;;;5.40;2.80;;;;;;;;;;5011904;28;20452;-61
2023/04/26 02:57:43;;;;;;;9.37;4.27;;;;;;;;;;5011873;28;20197;-61
2023/04/26 03:00:10;;;;;;;5.77;3.10;;;;;;;;;;5011827;28;20471;-61
2023/04/26 03:02:37;;;;;;;9.83;3.77;;;;;;;;;;5011685;28;20691;-61
2023/04/26 03:05:05;;;;;;;4.90;2.90;;;;;;;;;;5012031;28;20428;-61
2023/04/26 03:07:30;;;;;;;5.73;3.10;;;;;;;;;;5011751;28;20204;-61
2023/04/26 03:09:57;;;;;;;6.97;2.93;;;;;;;;;;5011868;28;20444;-61
2023/04/26 03:12:23;;;;;;;7.47;3.63;;;;;;;;;;5011429;28;20229;-61
2023/04/26 03:14:48;;;;;;;8.53;3.80;;;;;;;;;;5011588;28;20484;-61
2023/04/26 03:17:15;;;;;;;8.90;4.07;;;;;;;;;;5011711;28;20233;-61
2023/04/26 03:19:41;;;;;;;5.40;3.30;;;;;;;;;;5011462;28;20786;-61
2023/04/26 03:22:10;;;;;;;7.07;3.00;;;;;;;;;;5011704;28;20444;-61
2023/04/26 03:24:36;;;;;;;5.90;3.77;;;;;;;;;;5011776;28;20209;-62
2023/04/26 03:27:02;;;;;;;7.17;3.30;;;;;;;;;;5011687;28;20464;-62
2023/04/26 03:29:28;;;;;;;8.97;3.57;;;;;;;;;;5011403;28;20476;-62
2023/04/26 03:31:54;;;;;;;9.13;3.87;;;;;;;;;;5011441;28;20197;-63
2023/04/26 03:34:20;;;;;;;10.87;3.57;;;;;;;;;;5011424;28;20283;-62
2023/04/26 03:36:46;;;;;;;8.67;4.03;;;;;;;;;;5011311;28;20473;-62
2023/04/26 03:39:13;;;;;;;5.23;3.60;;;;;;;;;;5011427;28;20523;-62
2023/04/26 03:41:40;;;;;;;7.27;3.67;;;;;;;;;;5011323;28;20668;-62
2023/04/26 03:44:06;;;;;;;5.00;3.90;;;;;;;;;;5011559;28;20943;-62
2023/04/26 03:46:33;;;;;;;9.03;3.67;;;;;;;;;;5011395;28;20966;-61
2023/04/26 03:48:59;;;;;;;5.37;3.53;;;;;;;;;;5011337;28;20441;-62
2023/04/26 03:51:27;;;;;;;7.10;3.43;;;;;;;;;;5012899;28;20436;-62
2023/04/26 03:53:53;;;;;;;5.03;3.40;;;;;;;;;;5015038;28;20947;-62
2023/04/26 03:56:20;;;;;;;7.33;3.93;;;;;;;;;;5015151;28;20515;-62
2023/04/26 03:58:46;;;;;;;6.43;3.70;;;;;;;;;;5014988;28;20308;-62
2023/04/26 04:01:12;;;;;;;6.27;3.43;;;;;;;;;;5015082;28;20962;-62
2023/04/26 04:03:38;;;;;;;9.17;3.50;;;;;;;;;;5014795;28;20277;-62
2023/04/26 04:06:05;;;;;;;7.63;3.80;;;;;;;;;;5015185;28;20193;-61
2023/04/26 04:08:31;;;;;;;6.50;3.50;;;;;;;;;;5014909;28;20198;-62
2023/04/26 04:10:57;;;;;;;7.77;3.50;;;;;;;;;;5014841;28;20518;-62
2023/04/26 04:13:24;;;;;;;6.40;3.23;;;;;;;;;;5014723;28;20241;-62
2023/04/26 04:15:50;;;;;;;10.07;3.80;;;;;;;;;;5014447;28;20240;-62
2023/04/26 04:18:16;;;;;;;11.77;4.17;;;;;;;;;;5014818;28;20531;-61
2023/04/26 04:20:42;;;;;;;9.00;4.00;;;;;;;;;;5014563;28;20223;-62
2023/04/26 04:23:08;;;;;;;7.33;3.90;;;;;;;;;;5014695;28;20850;-62
2023/04/26 04:25:35;;;;;;;8.50;3.90;;;;;;;;;;5014520;28;20230;-62
2023/04/26 04:28:01;;;;;;;11.90;4.60;;;;;;;;;;5014689;28;20433;-62
2023/04/26 04:30:29;;;;;;;5.30;3.93;;;;;;;;;;5014522;28;20503;-62
2023/04/26 04:32:58;;;;;;;8.27;4.07;;;;;;;;;;5014469;28;20436;-62
2023/04/26 04:35:28;;;;;;;8.50;3.80;;;;;;;;;;5014378;28;20519;-62
2023/04/26 04:37:55;;;;;;;7.80;4.17;;;;;;;;;;5014428;28;20440;-62
2023/04/26 04:40:21;;;;;;;6.00;4.33;;;;;;;;;;5014253;28;20441;-62
2023/04/26 04:42:48;;;;;;;6.83;4.07;;;;;;;;;;5014480;28;20799;-62
2023/04/26 04:45:14;;;;;;;10.47;4.63;;;;;;;;;;5014230;28;20491;-62
2023/04/26 04:47:41;;;;;;;6.13;4.10;;;;;;;;;;5014112;28;20467;-63
2023/04/26 04:50:07;;;;;;;7.00;4.40;;;;;;;;;;5014176;28;20452;-62
2023/04/26 04:52:33;;;;;;;9.50;4.50;;;;;;;;;;5014209;28;20436;-62
2023/04/26 04:55:00;;;;;;;7.43;3.70;;;;;;;;;;5014071;28;20447;-61
2023/04/26 04:57:26;;;;;;;9.20;3.87;;;;;;;;;;5013538;28;20494;-62
2023/04/26 04:59:52;;;;;;;7.80;3.90;;;;;;;;;;5013510;28;20797;-62
2023/04/26 05:02:18;;;;;;;10.17;5.33;;;;;;;;;;5012746;28;20460;-61
2023/04/26 05:04:45;;;;;;;13.13;4.77;;;;;;;;;;5013616;28;20441;-62
2023/04/26 05:07:14;;;;;;;9.90;4.10;;;;;;;;;;5013726;28;20495;-62
2023/04/26 05:09:40;;;;;;;6.37;3.90;;;;;;;;;;5013533;28;20436;-61
2023/04/26 05:12:06;;;;;;;8.33;4.20;;;;;;;;;;5013436;28;20457;-63
2023/04/26 05:14:32;;;;;;;9.43;4.20;;;;;;;;;;5013266;28;20534;-63
2023/04/26 05:16:58;;;;;;;8.40;4.10;;;;;;;;;;5013327;28;20491;-62
2023/04/26 05:19:24;;;;;;;8.07;3.80;;;;;;;;;;5013188;28;20554;-63
2023/04/26 05:21:52;;;;;;;7.27;3.50;;;;;;;;;;5013457;28;20190;-64
2023/04/26 05:24:18;;;;;;;8.83;3.90;;;;;;;;;;5013326;28;20956;-63
2023/04/26 05:26:44;;;;;;;8.97;4.10;;;;;;;;;;5013199;28;20446;-63
2023/04/26 05:29:10;;;;;;;5.63;3.37;;;;;;;;;;5013270;28;20939;-63
2023/04/26 05:31:36;;;;;;;8.43;3.83;;;;;;;;;;5013015;28;20499;-62
2023/04/26 05:34:02;;;;;;;8.30;4.20;;;;;;;;;;5013333;28;20260;-62
2023/04/26 05:36:28;;;;;;;10.53;3.83;;;;;;;;;;5013168;28;20477;-63
2023/04/26 05:38:59;;;;;;;5.80;3.40;;;;;;;;;;5013214;28;20468;-63
2023/04/26 05:41:25;;;;;;;7.90;3.83;;;;;;;;;;5012853;28;20833;-63
2023/04/26 05:43:51;;;;;;;4.63;3.17;;;;;;;;;;5012885;28;20953;-63
2023/04/26 05:46:17;;;;;;;9.67;4.17;;;;;;;;;;5013076;28;20196;-63
2023/04/26 05:48:43;;;;;;;8.93;3.70;;;;;;;;;;5012815;28;20663;-63
2023/04/26 05:51:09;;;;;;;5.70;3.30;;;;;;;;;;5012811;28;20206;-63
2023/04/26 05:53:35;;;;;;;5.47;3.43;;;;;;;;;;5012784;28;20443;-63
2023/04/26 05:56:02;;;;;;;5.73;3.00;;;;;;;;;;5012938;28;20221;-64
2023/04/26 05:58:29;;;;;;;6.70;3.23;;;;;;;;;;5012707;28;21033;-62
2023/04/26 06:00:55;;;;;;;7.47;3.40;;;;;;;;;;5012625;28;20703;-64
2023/04/26 06:03:21;;;;;;;7.03;3.17;;;;;;;;;;5012606;28;20964;-63
2023/04/26 06:05:47;;;;;;;5.90;3.80;;;;;;;;;;5012591;28;20449;-61
2023/04/26 06:08:13;;;;;;;7.80;3.80;;;;;;;;;;5012481;28;20201;-64
2023/04/26 06:10:39;;;;;;;7.40;3.33;;;;;;;;;;5012548;28;20201;-63
2023/04/26 06:13:06;;;;;;;6.67;3.20;;;;;;;;;;5012306;28;20658;-63
2023/04/26 06:15:33;;;;;;;7.87;3.20;;;;;;;;;;5012173;28;20233;-64
2023/04/26 06:17:59;;;;;;;5.57;3.00;;;;;;;;;;5012387;28;20445;-64
2023/04/26 06:20:25;;;;;;;5.43;3.27;;;;;;;;;;5012295;28;20444;-63
2023/04/26 06:22:51;;;;;;;5.33;3.27;;;;;;;;;;5012197;28;20205;-63
2023/04/26 06:25:17;;;;;;;6.47;3.13;;;;;;;;;;5012609;28;20437;-63
2023/04/26 06:27:43;;;;;;;5.93;3.30;;;;;;;;;;5012095;28;20429;-65
2023/04/26 06:30:12;;;;;;;8.43;3.10;;;;;;;;;;5012168;28;20243;-63
2023/04/26 06:32:38;;;;;;;5.63;2.77;;;;;;;;;;5012009;28;20448;-63
2023/04/26 06:35:05;;;;;;;7.50;3.03;;;;;;;;;;5012417;28;20957;-62
2023/04/26 06:37:31;;;;;;;7.13;3.10;;;;;;;;;;5012327;28;20962;-62
2023/04/26 06:40:00;;;;;;;6.93;3.40;;;;;;;;;;5012055;28;20926;-63
2023/04/26 06:42:26;;;;;;;7.07;3.23;;;;;;;;;;5012153;28;20448;-62
2023/04/26 06:44:52;;;;;;;8.13;3.10;;;;;;;;;;5011828;28;20445;-62
2023/04/26 06:47:22;;;;;;;4.80;2.67;;;;;;;;;;5012066;28;20609;-61
2023/04/26 06:49:48;;;;;;;6.40;2.67;;;;;;;;;;5011933;28;20229;-61
2023/04/26 06:52:14;;;;;;;10.67;3.20;;;;;;;;;;5011850;28;20468;-62
2023/04/26 06:54:40;;;;;;;5.57;2.87;;;;;;;;;;5011845;28;20534;-62
2023/04/26 06:57:06;;;;;;;7.00;3.23;;;;;;;;;;5011668;28;20476;-63
2023/04/26 06:59:32;;;;;;;5.33;3.50;;;;;;;;;;5012121;28;20271;-58
2023/04/26 07:01:59;;;;;;;6.73;2.97;;;;;;;;;;5011609;28;20229;-57
2023/04/26 07:04:26;;;;;;;8.07;3.47;;;;;;;;;;5011677;28;20689;-55
2023/04/26 07:06:52;;;;;;;6.10;2.67;;;;;;;;;;5011626;28;20441;-55
2023/04/26 07:09:18;;;;;;;5.77;2.90;;;;;;;;;;5012183;28;20447;-57
2023/04/26 07:11:46;;;;;;;5.27;2.50;;;;;;;;;;5011713;28;20213;-57
2023/04/26 07:14:12;;;;;;;4.73;2.70;;;;;;;;;;5011836;28;20320;-57
2023/04/26 07:16:38;;;;;;;4.17;2.60;;;;;;;;;;5011199;28;20301;-56
2023/04/26 07:19:05;;;;;;;3.27;2.80;;;;;;;;;;5009818;28;20582;-57
2023/04/26 07:21:33;;;;;;;7.57;2.60;;;;;;;;;;5011413;28;20201;-57
2023/04/26 07:23:59;;;;;;;5.67;2.90;;;;;;;;;;5011154;28;20578;-56
2023/04/26 07:26:25;;;;;;;6.33;2.37;;;;;;;;;;5013308;28;20193;-56
2023/04/26 07:28:52;;;;;;;6.60;2.83;;;;;;;;;;5015290;28;20197;-56
2023/04/26 07:31:18;;;;;;;4.23;2.60;;;;;;;;;;5015561;28;20244;-56
2023/04/26 07:33:44;;;;;;;4.73;2.43;;;;;;;;;;5015144;28;20722;-55
2023/04/26 07:36:10;;;;;;;10.57;3.30;;;;;;;;;;5015268;28;20225;-56
2023/04/26 07:38:37;;;;;;;8.80;3.03;;;;;;;;;;5015293;28;20213;-55
2023/04/26 07:41:03;;;;;;;7.37;2.70;;;;;;;;;;5015330;28;20205;-55
2023/04/26 07:43:30;;;;;;;4.87;2.73;;;;;;;;;;5014977;28;20623;-55
2023/04/26 07:45:59;;;;;;;7.20;2.67;;;;;;;;;;5015062;28;20598;-55
2023/04/26 07:48:25;;;;;;;5.53;2.30;;;;;;;;;;5015117;28;20198;-55
2023/04/26 07:50:51;;;;;;;7.60;2.70;;;;;;;;;;5014994;28;20548;-56
2023/04/26 07:53:17;;;;;;;4.40;2.40;;;;;;;;;;5015175;28;20259;-55
2023/04/26 07:55:45;;;;;;;5.33;3.10;;;;;;;;;;5014607;28;20205;-55
2023/04/26 07:58:13;;;;;;;6.23;2.40;;;;;;;;;;5014727;28;20296;-56
2023/04/26 08:00:39;;;;;;;5.07;2.87;;;;;;;;;;5014662;28;20210;-56
2023/04/26 08:03:05;;;;;;;5.63;2.63;;;;;;;;;;5014575;28;20201;-55
2023/04/26 08:05:31;;;;;;;6.07;2.67;;;;;;;;;;5014733;28;20201;-55
2023/04/26 08:07:59;;;;;;;5.43;2.70;;;;;;;;;;5014694;28;20224;-55
2023/04/26 08:10:25;;;;;;;7.80;3.03;;;;;;;;;;5014656;28;20225;-55
2023/04/26 08:12:52;;;;;;;4.87;2.00;;;;;;;;;;5014253;28;20226;-56
2023/04/26 08:15:19;;;;;;;5.77;2.30;;;;;;;;;;5014627;28;20295;-55
2023/04/26 08:17:45;;;;;;;5.40;2.43;;;;;;;;;;5014508;28;20313;-55
2023/04/26 08:20:12;;;;;;;4.83;2.30;;;;;;;;;;5014522;28;20197;-55
2023/04/26 08:22:38;;;;;;;4.50;2.00;;;;;;;;;;5014359;28;20309;-55
2023/04/26 08:25:05;;;;;;;2.43;1.63;;;;;;;;;;5014574;28;20332;-55
2023/04/26 08:27:33;;;;;;;5.50;2.13;;;;;;;;;;5014376;28;20228;-56
2023/04/26 08:30:00;;;;;;;5.40;2.40;;;;;;;;;;5014181;28;20208;-56
2023/04/26 08:32:26;;;;;;;4.53;2.10;;;;;;;;;;5014201;28;20209;-56
2023/04/26 08:34:52;;;;;;;6.87;2.37;;;;;;;;;;5014076;28;20204;-57
2023/04/26 08:37:18;;;;;;;3.60;2.00;;;;;;;;;;5013614;28;20225;-56
2023/04/26 08:39:44;;;;;;;3.57;1.87;;;;;;;;;;5014007;28;20205;-55
2023/04/26 08:42:13;;;;;;;4.87;2.00;;;;;;;;;;5013810;28;20229;-56
2023/04/26 08:44:40;;;;;;;5.50;2.00;;;;;;;;;;5013687;28;20655;-55
2023/04/26 08:47:13;;;;;;;5.50;2.23;;;;;;;;;;5014056;28;20277;-56
2023/04/26 08:49:42;;;;;;;7.27;2.13;;;;;;;;;;5013703;28;20292;-56
2023/04/26 08:52:09;;;;;;;7.00;2.33;;;;;;;;;;5013714;28;20625;-56
2023/04/26 08:54:36;;;;;;;5.37;2.20;;;;;;;;;;5013765;28;20247;-56
2023/04/26 08:57:02;;;;;;;5.67;2.57;;;;;;;;;;5013866;28;20225;-56
2023/04/26 08:59:29;;;;;;;2.63;1.77;;;;;;;;;;5013672;28;20201;-56
2023/04/26 09:01:57;;;;;;;5.20;2.13;;;;;;;;;;5013547;28;20221;-55
2023/04/26 09:04:24;;;;;;;6.23;2.10;;;;;;;;;;5013662;28;20208;-55
2023/04/26 09:06:53;;;;;;;2.30;1.60;;;;;;;;;;5013576;28;20230;-56
2023/04/26 09:09:20;;;;;;;4.03;2.20;;;;;;;;;;5013596;28;20717;-56
2023/04/26 09:11:53;;;;;;;4.67;2.10;;;;;;;;;;5013346;28;20194;-57
2023/04/26 09:14:19;;;;;;;3.60;2.30;;;;;;;;;;5013678;28;20268;-56
2023/04/26 09:16:45;;;;;;;4.73;2.27;;;;;;;;;;5013295;28;20210;-56
2023/04/26 09:19:11;;;;;;;3.87;1.83;;;;;;;;;;5013394;28;20202;-56
2023/04/26 09:21:43;;;;;;;6.77;2.30;;;;;;;;;;5013176;28;20614;-55
2023/04/26 09:24:09;;;;;;;3.90;2.10;;;;;;;;;;5013213;28;20543;-56
2023/04/26 09:26:35;;;;;;;7.53;2.30;;;;;;;;;;5013369;28;20208;-56
2023/04/26 09:29:11;;;;;;;3.37;2.00;;;;;;;;;;5013235;28;20268;-56
2023/04/26 09:31:39;;;;;;;4.53;2.17;;;;;;;;;;5013109;28;20662;-56
2023/04/26 09:34:05;;;;;;;2.60;2.00;;;;;;;;;;5013224;28;20205;-56
2023/04/26 09:36:31;;;;;;;3.63;2.00;;;;;;;;;;5012490;28;20260;-56
2023/04/26 09:38:58;;;;;;;4.23;2.23;;;;;;;;;;5013013;28;20206;-55
2023/04/26 09:41:29;;;;;;;2.73;2.00;;;;;;;;;;5012784;28;20208;-56
2023/04/26 09:43:55;;;;;;;3.17;1.80;;;;;;;;;;5012910;28;20570;-56
2023/04/26 09:46:23;;;;;;;4.17;2.23;;;;;;;;;;5012891;28;20659;-56
2023/04/26 09:49:00;;;;;;;2.80;1.93;;;;;;;;;;5011971;28;20213;-56
2023/04/26 09:51:27;;;;;;;4.53;1.90;;;;;;;;;;5012904;28;20208;-56
2023/04/26 09:53:53;;;;;;;2.63;1.60;;;;;;;;;;5012662;28;20201;-56
2023/04/26 09:56:20;;;;;;;4.00;2.20;;;;;;;;;;5012780;28;20223;-56
2023/04/26 09:58:57;;;;;;;2.33;1.70;;;;;;;;;;5012891;28;20209;-55
2023/04/26 10:01:24;;;;;;;2.83;1.67;;;;;;;;;;5012845;28;20193;-56
2023/04/26 10:03:50;;;;;;;4.77;2.33;;;;;;;;;;5012521;28;20288;-56
2023/04/26 10:06:16;;;;;;;2.77;1.80;;;;;;;;;;5012552;28;20666;-56
2023/04/26 10:08:43;;;;;;;4.33;1.93;;;;;;;;;;5012485;28;20200;-55
2023/04/26 10:11:12;;;;;;;5.50;1.93;;;;;;;;;;5012508;28;20201;-55
2023/04/26 10:13:40;;;;;;;3.80;1.80;;;;;;;;;;5012173;28;20225;-54
2023/04/26 10:16:06;;;;;;;2.43;1.70;;;;;;;;;;5012307;28;20206;-55
2023/04/26 10:18:33;;;;;;;3.83;1.70;;;;;;;;;;5012396;28;20197;-55
2023/04/26 10:21:00;;;;;;;3.60;1.83;;;;;;;;;;5012218;28;20212;-57
2023/04/26 10:23:26;;;;;;;4.83;1.50;;;;;;;;;;5012165;28;20209;-55
2023/04/26 10:25:52;;;;;;;2.07;1.43;;;;;;;;;;5011999;28;20596;-55
2023/04/26 10:28:38;;;;;;;4.07;1.93;;;;;;;;;;5012363;28;20576;-55
2023/04/26 10:31:06;;;;;;;4.77;2.00;;;;;;;;;;5012095;28;20267;-58
2023/04/26 10:33:33;;;;;;;3.83;2.00;;;;;;;;;;5012360;28;20202;-56
2023/04/26 10:36:09;;;;;;;3.83;1.80;;;;;;;;;;5011789;28;20292;-56
2023/04/26 10:38:35;;;;;;;2.87;1.50;;;;;;;;;;5012009;28;20251;-55
2023/04/26 10:41:20;;;;;;;3.37;1.70;;;;;;;;;;5011836;28;20205;-56
2023/04/26 10:43:46;;;;;;;3.07;1.60;;;;;;;;;;5011878;28;20190;-56
2023/04/26 10:46:31;;;;;;;4.20;1.90;;;;;;;;;;5011766;28;20212;-57
2023/04/26 10:48:58;;;;;;;2.63;1.60;;;;;;;;;;5011582;28;20198;-55
2023/04/26 10:51:24;;;;;;;3.37;1.80;;;;;;;;;;5011486;28;20231;-56
2023/04/26 10:53:59;;;;;;;2.93;1.70;;;;;;;;;;5011569;28;20197;-56
2023/04/26 10:56:44;;;;;;;2.97;1.80;;;;;;;;;;5011395;28;20216;-55
2023/04/26 10:59:10;;;;;;;4.77;1.90;;;;;;;;;;5011480;28;20268;-56
2023/04/26 11:01:37;;;;;;;3.20;1.70;;;;;;;;;;5011468;28;20676;-56
2023/04/26 11:04:07;;;;;;;3.43;1.80;;;;;;;;;;5011389;28;20260;-56
2023/04/26 11:06:47;;;;;;;3.87;2.07;;;;;;;;;;5011546;28;20194;-56
2023/04/26 11:09:28;;;;;;;3.60;1.97;;;;;;;;;;5011463;28;20205;-56
2023/04/26 11:11:54;;;;;;;5.53;2.13;;;;;;;;;;5011166;28;20252;-56
2023/04/26 11:14:21;;;;;;;2.70;2.17;;;;;;;;;;5011562;28;20260;-56
2023/04/26 11:16:47;;;;;;;3.60;1.97;;;;;;;;;;5011387;28;20247;-55
2023/04/26 11:19:15;;;;;;;3.93;1.97;;;;;;;;;;5011438;28;20702;-56
2023/04/26 11:21:41;;;;;;;2.70;1.57;;;;;;;;;;5011294;28;20201;-56
2023/04/26 11:24:07;;;;;;;3.33;1.80;;;;;;;;;;5011296;28;20208;-57
2023/04/26 11:26:34;;;;;;;2.20;1.90;;;;;;;;;;5011295;28;20189;-57
2023/04/26 11:29:00;;;;;;;5.03;2.03;;;;;;;;;;5011287;28;20251;-57
2023/04/26 11:31:29;;;;;;;2.40;1.87;;;;;;;;;;5011262;28;20201;-56
2023/04/26 11:34:00;;;;;;;2.60;2.00;;;;;;;;;;5010963;28;20737;-56
2023/04/26 11:36:28;;;;;;;3.90;2.33;;;;;;;;;;5011231;28;20683;-56
2023/04/26 11:38:55;;;;;;;4.63;2.20;;;;;;;;;;5011143;28;20202;-57
2023/04/26 11:41:23;;;;;;;3.97;2.00;;;;;;;;;;5010031;28;20197;-56
2023/04/26 11:43:49;;;;;;;3.07;1.80;;;;;;;;;;5011335;28;20308;-57
2023/04/26 11:46:15;;;;;;;5.90;1.97;;;;;;;;;;5011165;28;20208;-56
2023/04/26 11:48:41;;;;;;;5.97;2.30;;;;;;;;;;5011296;28;20281;-56
2023/04/26 11:51:08;;;;;;;2.33;2.00;;;;;;;;;;5010967;28;20208;-57
2023/04/26 11:53:36;;;;;;;5.03;2.30;;;;;;;;;;5011420;28;20564;-56
2023/04/26 11:56:02;;;;;;;2.77;1.90;;;;;;;;;;5011244;28;20205;-56
2023/04/26 11:58:28;;;;;;;4.47;2.10;;;;;;;;;;5011229;28;20612;-57
2023/04/26 12:00:55;;;;;;;2.57;2.37;;;;;;;;;;5010904;28;20208;-56
2023/04/26 12:03:22;;;;;;;2.73;2.20;;;;;;;;;;5011049;28;20198;-56
2023/04/26 12:05:53;;;;;;;4.70;2.23;;;;;;;;;;5011094;28;20288;-56
2023/04/26 12:08:23;;;;;;;4.50;2.30;;;;;;;;;;5011274;28;20248;-56
2023/04/26 12:10:50;;;;;;;5.20;2.40;;;;;;;;;;5011000;28;20425;-56
2023/04/26 12:13:16;;;;;;;3.83;2.10;;;;;;;;;;5013966;28;20226;-58
2023/04/26 12:15:42;;;;;;;2.47;2.13;;;;;;;;;;5014517;28;20589;-57
2023/04/26 12:18:09;;;;;;;4.00;2.07;;;;;;;;;;5014102;28;20239;-56
2023/04/26 12:20:36;;;;;;;3.93;2.57;;;;;;;;;;5014605;28;20319;-56
2023/04/26 12:23:03;;;;;;;3.53;2.33;;;;;;;;;;5014514;28;20655;-56
2023/04/26 12:25:30;;;;;;;3.67;2.20;;;;;;;;;;5014502;28;20204;-57
2023/04/26 12:27:57;;;;;;;3.57;2.27;;;;;;;;;;5014138;28;20228;-57
2023/04/26 12:30:24;;;;;;;4.33;2.63;;;;;;;;;;5014361;28;20201;-56
2023/04/26 12:32:50;;;;;;;5.17;2.60;;;;;;;;;;5014242;28;20217;-56
2023/04/26 12:35:16;;;;;;;3.10;2.13;;;;;;;;;;5014427;28;20202;-56
2023/04/26 12:37:42;;;;;;;3.20;2.33;;;;;;;;;;5014029;28;20719;-56
2023/04/26 12:40:09;;;;;;;4.27;2.13;;;;;;;;;;5013887;28;20213;-56
2023/04/26 12:42:35;;;;;;;4.27;2.13;;;;;;;;;;5014108;28;20641;-56
2023/04/26 12:45:03;;;;;;;4.10;2.10;;;;;;;;;;5013951;28;20272;-56
2023/04/26 12:47:30;;;;;;;3.00;1.93;;;;;;;;;;5013879;28;20197;-57
2023/04/26 12:49:57;;;;;;;6.60;2.27;;;;;;;;;;5013796;28;20201;-57
2023/04/26 12:52:23;;;;;;;5.03;2.10;;;;;;;;;;5013889;28;20206;-57
2023/04/26 12:54:50;;;;;;;3.57;2.37;;;;;;;;;;5013928;28;20211;-56
2023/04/26 12:57:16;;;;;;;3.47;2.03;;;;;;;;;;5013613;28;20221;-57
2023/04/26 12:59:42;;;;;;;4.83;2.30;;;;;;;;;;5013646;28;20256;-57
2023/04/26 13:02:09;;;;;;;4.03;2.40;;;;;;;;;;5013537;28;20706;-57
2023/04/26 13:04:35;;;;;;;3.17;2.37;;;;;;;;;;5013616;28;20202;-57
2023/04/26 13:07:01;;;;;;;2.97;2.17;;;;;;;;;;5013587;28;20197;-57
2023/04/26 13:09:27;;;;;;;3.20;2.23;;;;;;;;;;5013479;28;20293;-57
2023/04/26 13:11:53;;;;;;;5.53;2.53;;;;;;;;;;5013247;28;20202;-57
2023/04/26 13:14:21;;;;;;;3.73;2.40;;;;;;;;;;5013424;28;20268;-57
2023/04/26 13:16:47;;;;;;;4.93;2.53;;;;;;;;;;5013440;28;20222;-57
2023/04/26 13:19:16;;;;;;;2.80;2.20;;;;;;;;;;5013148;28;20689;-57
2023/04/26 13:21:42;;;;;;;6.20;2.90;;;;;;;;;;5013236;28;20427;-57
2023/04/26 13:24:08;;;;;;;3.30;2.37;;;;;;;;;;5012104;28;20206;-57
2023/04/26 13:26:34;;;;;;;4.50;2.53;;;;;;;;;;5013500;28;20194;-57
2023/04/26 13:29:00;;;;;;;6.27;2.43;;;;;;;;;;5013243;28;20238;-57
2023/04/26 13:31:26;;;;;;;3.67;2.60;;;;;;;;;;5013516;28;20229;-57
2023/04/26 13:33:52;;;;;;;4.50;2.37;;;;;;;;;;5012988;28;20201;-58
2023/04/26 13:36:19;;;;;;;3.23;1.97;;;;;;;;;;5013145;28;20245;-57
2023/04/26 13:38:45;;;;;;;4.37;2.40;;;;;;;;;;5013038;28;20209;-57
2023/04/26 13:41:11;;;;;;;3.10;2.13;;;;;;;;;;5012867;28;20194;-56
2023/04/26 13:43:37;;;;;;;4.27;2.60;;;;;;;;;;5012804;28;20691;-57
2023/04/26 13:46:04;;;;;;;4.30;2.40;;;;;;;;;;5012906;28;20280;-56
2023/04/26 13:48:30;;;;;;;4.37;2.20;;;;;;;;;;5012900;28;20268;-57
2023/04/26 13:50:56;;;;;;;4.57;2.23;;;;;;;;;;5012635;28;20743;-57
2023/04/26 13:53:23;;;;;;;4.57;2.43;;;;;;;;;;5012773;28;20610;-57
2023/04/26 13:55:49;;;;;;;4.03;2.40;;;;;;;;;;5013189;28;20212;-57
2023/04/26 13:58:16;;;;;;;4.53;2.87;;;;;;;;;;5012512;28;20691;-57
2023/04/26 14:00:42;;;;;;;6.43;2.60;;;;;;;;;;5012702;28;20378;-57
2023/04/26 14:03:08;;;;;;;4.53;2.10;;;;;;;;;;5012482;28;20251;-57
2023/04/26 14:05:33;;;;;;;6.23;2.30;;;;;;;;;;5012774;28;20660;-57
2023/04/26 14:08:00;;;;;;;4.17;2.37;;;;;;;;;;5012304;28;20204;-57
2023/04/26 14:10:27;;;;;;;2.73;2.17;;;;;;;;;;5012209;28;20347;-57
2023/04/26 14:12:55;;;;;;;4.03;2.43;;;;;;;;;;5012282;28;20218;-58
2023/04/26 14:15:21;;;;;;;4.70;2.60;;;;;;;;;;5012334;28;20307;-57
2023/04/26 14:17:47;;;;;;;2.80;2.20;;;;;;;;;;5012449;28;20295;-58
2023/04/26 14:20:13;;;;;;;5.27;2.40;;;;;;;;;;5012139;28;20260;-57
2023/04/26 14:22:39;;;;;;;3.40;2.37;;;;;;;;;;5012120;28;20598;-57
2023/04/26 14:25:06;;;;;;;3.23;2.30;;;;;;;;;;5012009;28;20213;-55
2023/04/26 14:27:34;;;;;;;5.63;2.80;;;;;;;;;;5012499;28;20196;-57
2023/04/26 14:30:00;;;;;;;3.37;2.50;;;;;;;;;;5012119;28;20273;-56
2023/04/26 14:32:26;;;;;;;3.37;2.07;;;;;;;;;;5012020;28;20207;-56
2023/04/26 14:34:52;;;;;;;5.50;2.43;;;;;;;;;;5011730;28;20201;-56
2023/04/26 14:37:21;;;;;;;3.00;2.40;;;;;;;;;;5012008;28;20280;-56
2023/04/26 14:39:47;;;;;;;3.97;2.57;;;;;;;;;;5012074;28;20213;-56
2023/04/26 14:42:13;;;;;;;6.40;2.90;;;;;;;;;;5011740;28;20212;-56